createdAt,value
2018-01-18T00:00:30.303Z,97698.19
2018-01-18T00:02:57.943Z,97706.33
2018-01-18T00:05:25.563Z,97708.38
2018-01-18T00:07:53.217Z,97695.41
2018-01-18T00:10:20.967Z,97698.61
2018-01-18T00:12:48.712Z,97696.77
2018-01-18T00:15:16.349Z,97701.12
2018-01-18T00:17:43.963Z,97689.41
2018-01-18T00:20:11.598Z,97702.50
2018-01-18T00:22:39.209Z,97695.73
2018-01-18T00:25:06.881Z,97693.72
2018-01-18T00:27:34.583Z,97693.36
2018-01-18T00:30:02.208Z,97701.53
2018-01-18T00:32:29.877Z,97711.22
2018-01-18T00:34:57.586Z,97708.55
2018-01-18T00:37:25.204Z,97706.87
2018-01-18T00:39:52.812Z,97707.77
2018-01-18T00:42:20.422Z,97702.76
2018-01-18T00:44:48.069Z,97705.22
2018-01-18T00:47:15.684Z,97702.30
2018-01-18T00:49:43.361Z,97706.04
2018-01-18T00:52:10.977Z,97700.81
2018-01-18T00:54:38.737Z,97698.29
2018-01-18T00:57:06.412Z,97696.93
2018-01-18T00:59:34.090Z,97694.00
2018-01-18T01:02:01.690Z,97700.39
2018-01-18T01:04:29.472Z,97699.11
2018-01-18T01:06:57.572Z,97701.78
2018-01-18T01:09:25.207Z,97702.77
2018-01-18T01:11:53.022Z,97699.43
2018-01-18T01:14:20.627Z,97698.59
2018-01-18T01:16:48.487Z,97683.07
2018-01-18T01:19:16.273Z,97682.30
2018-01-18T01:21:44.212Z,97700.08
2018-01-18T01:24:11.823Z,97687.19
2018-01-18T01:26:39.559Z,97691.39
2018-01-18T01:29:07.162Z,97686.27
2018-01-18T01:31:34.793Z,97692.28
2018-01-18T01:34:02.408Z,97686.26
2018-01-18T01:36:30.023Z,97687.50
2018-01-18T01:38:57.629Z,97685.44
2018-01-18T01:41:25.242Z,97674.00
2018-01-18T01:43:52.884Z,97660.87
2018-01-18T01:46:20.604Z,97663.02
2018-01-18T01:48:48.205Z,97657.41
2018-01-18T01:51:15.823Z,97661.64
2018-01-18T01:53:43.778Z,97652.73
2018-01-18T01:56:11.397Z,97657.13
2018-01-18T01:58:39.083Z,97650.60
2018-01-18T02:01:06.800Z,97641.53
2018-01-18T02:03:34.489Z,97639.29
2018-01-18T02:06:02.154Z,97631.94
2018-01-18T02:08:29.766Z,97623.91
2018-01-18T02:10:57.388Z,97627.37
2018-01-18T02:13:25.285Z,97635.71
2018-01-18T02:15:52.899Z,97625.84
2018-01-18T02:18:20.558Z,97620.77
2018-01-18T02:20:48.595Z,97615.62
2018-01-18T02:23:16.207Z,97613.73
2018-01-18T02:25:43.857Z,97604.27
2018-01-18T02:28:11.483Z,97608.45
2018-01-18T02:30:39.156Z,97608.33
2018-01-18T02:33:06.767Z,97599.45
2018-01-18T02:35:34.430Z,97593.91
2018-01-18T02:38:02.075Z,97589.02
2018-01-18T02:40:29.771Z,97565.83
2018-01-18T02:42:58.338Z,97578.14
2018-01-18T02:45:26.098Z,97583.80
2018-01-18T02:47:53.697Z,97567.18
2018-01-18T02:50:21.373Z,97565.45
2018-01-18T02:52:48.984Z,97551.81
2018-01-18T02:55:16.660Z,97545.45
2018-01-18T02:57:44.279Z,97550.66
2018-01-18T03:00:11.984Z,97550.16
2018-01-18T03:02:39.817Z,97545.80
2018-01-18T03:05:07.604Z,97538.13
2018-01-18T03:07:35.197Z,97533.19
2018-01-18T03:10:02.878Z,97534.30
2018-01-18T03:12:30.594Z,97519.37
2018-01-18T03:14:58.309Z,97516.13
2018-01-18T03:17:25.937Z,97508.54
2018-01-18T03:19:53.572Z,97523.51
2018-01-18T03:22:21.179Z,97516.46
2018-01-18T03:24:48.822Z,97512.85
2018-01-18T03:27:16.428Z,97507.80
2018-01-18T03:29:44.057Z,97503.24
2018-01-18T03:32:11.777Z,97510.59
2018-01-18T03:34:39.481Z,97509.27
2018-01-18T03:37:07.179Z,97508.61
2018-01-18T03:39:34.978Z,97486.69
2018-01-18T03:42:02.695Z,97486.97
2018-01-18T03:44:30.397Z,97470.81
2018-01-18T03:46:58.112Z,97465.88
2018-01-18T03:49:25.766Z,97463.06
2018-01-18T03:51:53.362Z,97460.80
2018-01-18T03:54:20.978Z,97452.27
2018-01-18T03:56:48.687Z,97449.98
2018-01-18T03:59:16.349Z,97443.97
2018-01-18T04:01:44.028Z,97438.77
2018-01-18T04:04:11.673Z,97432.36
2018-01-18T04:06:39.324Z,97434.75
2018-01-18T04:09:06.940Z,97423.00
2018-01-18T04:11:34.561Z,97413.93
2018-01-18T04:14:02.226Z,97411.65
2018-01-18T04:16:30.046Z,97399.36
2018-01-18T04:18:57.664Z,97398.43
2018-01-18T04:21:25.319Z,97390.96
2018-01-18T04:23:52.950Z,97383.08
2018-01-18T04:26:20.730Z,97373.58
2018-01-18T04:28:48.421Z,97362.64
2018-01-18T04:31:16.034Z,97353.02
2018-01-18T04:33:43.898Z,97341.92
2018-01-18T04:36:11.574Z,97332.67
2018-01-18T04:38:39.308Z,97340.84
2018-01-18T04:41:06.929Z,97338.20
2018-01-18T04:43:34.530Z,97328.41
2018-01-18T04:46:02.144Z,97317.60
2018-01-18T04:48:29.748Z,97313.50
2018-01-18T04:50:57.379Z,97314.56
2018-01-18T04:53:25.094Z,97297.97
2018-01-18T04:55:52.727Z,97281.98
2018-01-18T04:58:20.384Z,97275.79
2018-01-18T05:00:48.028Z,97279.83
2018-01-18T05:03:15.648Z,97264.49
2018-01-18T05:05:43.279Z,97274.09
2018-01-18T05:08:10.992Z,97260.22
2018-01-18T05:10:38.600Z,97250.33
2018-01-18T05:13:06.367Z,97243.50
2018-01-18T05:15:33.983Z,97227.86
2018-01-18T05:18:01.704Z,97227.29
2018-01-18T05:20:29.350Z,97215.86
2018-01-18T05:22:56.992Z,97211.50
2018-01-18T05:25:24.628Z,97199.83
2018-01-18T05:27:52.274Z,97192.33
2018-01-18T05:30:19.884Z,97183.10
2018-01-18T05:32:47.559Z,97182.03
2018-01-18T05:35:15.192Z,97174.25
2018-01-18T05:37:42.867Z,97166.13
2018-01-18T05:40:10.499Z,97158.63
2018-01-18T05:42:38.452Z,97157.20
2018-01-18T05:45:06.068Z,97144.55
2018-01-18T05:47:33.858Z,97142.41
2018-01-18T05:50:01.503Z,97132.28
2018-01-18T05:52:29.134Z,97119.80
2018-01-18T05:54:56.824Z,97115.66
2018-01-18T05:57:24.457Z,97116.02
2018-01-18T05:59:52.062Z,97114.75
2018-01-18T06:02:19.823Z,97100.23
2018-01-18T06:04:47.424Z,97081.27
2018-01-18T06:07:15.018Z,97077.24
2018-01-18T06:09:42.642Z,97062.58
2018-01-18T06:12:10.305Z,97054.11
2018-01-18T06:14:38.126Z,97057.32
2018-01-18T06:17:05.837Z,97036.44
2018-01-18T06:19:33.557Z,97035.02
2018-01-18T06:22:01.143Z,97029.85
2018-01-18T06:24:28.769Z,97031.53
2018-01-18T06:26:56.418Z,97017.80
2018-01-18T06:29:24.049Z,97009.83
2018-01-18T06:31:51.675Z,97018.94
2018-01-18T06:34:19.403Z,97006.81
2018-01-18T06:36:47.227Z,96999.31
2018-01-18T06:39:14.843Z,97003.63
2018-01-18T06:41:42.453Z,96994.90
2018-01-18T06:44:10.118Z,96992.61
2018-01-18T06:46:37.758Z,96993.02
2018-01-18T06:49:05.863Z,96993.59
2018-01-18T06:51:33.564Z,96974.14
2018-01-18T06:54:01.184Z,96959.77
2018-01-18T06:56:28.919Z,96962.05
2018-01-18T06:58:56.539Z,96967.60
2018-01-18T07:01:24.354Z,96964.91
2018-01-18T07:03:52.694Z,96959.52
2018-01-18T07:06:20.319Z,96970.39
2018-01-18T07:08:47.998Z,96954.63
2018-01-18T07:11:15.603Z,96966.44
2018-01-18T07:13:43.228Z,96984.45
2018-01-18T07:16:10.872Z,96966.63
2018-01-18T07:18:38.474Z,96972.72
2018-01-18T07:21:06.115Z,96974.65
2018-01-18T07:23:33.801Z,96962.84
2018-01-18T07:26:01.594Z,96967.78
2018-01-18T07:28:29.219Z,96968.00
2018-01-18T07:30:57.379Z,96949.92
2018-01-18T07:33:24.988Z,96949.42
2018-01-18T07:35:52.760Z,96962.11
2018-01-18T07:38:20.375Z,96967.09
2018-01-18T07:40:47.989Z,96963.08
2018-01-18T07:43:15.608Z,96966.00
2018-01-18T07:45:43.214Z,96956.56
2018-01-18T07:48:10.826Z,96952.01
2018-01-18T07:50:38.449Z,96953.36
2018-01-18T07:53:06.085Z,96939.20
2018-01-18T07:55:33.739Z,96940.33
2018-01-18T07:58:01.458Z,96933.73
2018-01-18T08:00:29.225Z,96944.08
2018-01-18T08:03:02.584Z,96938.44
2018-01-18T08:05:30.295Z,96958.05
2018-01-18T08:07:57.900Z,96952.70
2018-01-18T08:10:25.503Z,96956.47
2018-01-18T08:12:53.294Z,96946.48
2018-01-18T08:15:20.924Z,96952.77
2018-01-18T08:17:48.568Z,96947.80
2018-01-18T08:20:16.185Z,96946.64
2018-01-18T08:22:44.008Z,96948.12
2018-01-18T08:25:11.640Z,96955.56
2018-01-18T08:27:39.348Z,96949.39
2018-01-18T08:30:06.992Z,96942.38
2018-01-18T08:32:34.610Z,96948.48
2018-01-18T08:35:02.253Z,96937.81
2018-01-18T08:37:29.880Z,96937.98
2018-01-18T08:39:57.545Z,96934.89
2018-01-18T08:42:25.155Z,96928.83
2018-01-18T08:44:52.794Z,96921.52
2018-01-18T08:47:20.427Z,96940.78
2018-01-18T08:49:48.103Z,96937.08
2018-01-18T08:52:15.726Z,96947.68
2018-01-18T08:54:43.374Z,96958.13
2018-01-18T08:57:11.020Z,96948.50
2018-01-18T08:59:38.760Z,96938.20
2018-01-18T09:02:06.400Z,96937.00
2018-01-18T09:04:34.134Z,96933.98
2018-01-18T09:07:01.759Z,96924.88
2018-01-18T09:09:29.464Z,96935.36
2018-01-18T09:11:57.086Z,96954.02
2018-01-18T09:14:24.692Z,96936.20
2018-01-18T09:16:52.300Z,96954.31
2018-01-18T09:19:19.953Z,96931.42
2018-01-18T09:21:47.593Z,96918.61
2018-01-18T09:24:15.205Z,96896.17
2018-01-18T09:26:43.009Z,96900.25
2018-01-18T09:29:10.699Z,96897.91
2018-01-18T09:31:38.295Z,96907.22
2018-01-18T09:34:06.010Z,96904.02
2018-01-18T09:36:33.658Z,96892.55
2018-01-18T09:39:01.289Z,96896.31
2018-01-18T09:41:28.953Z,96901.55
2018-01-18T09:43:56.585Z,96889.06
2018-01-18T09:46:24.564Z,96900.73
2018-01-18T09:48:52.274Z,96893.06
2018-01-18T09:51:20.020Z,96883.53
2018-01-18T09:53:47.654Z,96871.86
2018-01-18T09:56:15.295Z,96869.41
2018-01-18T09:58:42.935Z,96874.63
2018-01-18T10:01:10.561Z,96867.66
2018-01-18T10:03:38.195Z,96858.19
2018-01-18T10:06:05.805Z,96870.66
2018-01-18T10:08:33.415Z,96866.91
2018-01-18T10:11:01.123Z,96867.04
2018-01-18T10:13:28.734Z,96848.03
2018-01-18T10:15:56.385Z,96852.81
2018-01-18T10:18:24.171Z,96835.73
2018-01-18T10:20:51.789Z,96838.08
2018-01-18T10:23:19.488Z,96823.05
2018-01-18T10:25:47.103Z,96835.44
2018-01-18T10:28:14.745Z,96847.50
2018-01-18T10:30:42.409Z,96814.19
2018-01-18T10:33:10.241Z,96823.83
2018-01-18T10:35:37.989Z,96808.85
2018-01-18T10:38:05.599Z,96824.59
2018-01-18T10:40:33.210Z,96809.39
2018-01-18T10:43:00.838Z,96825.81
2018-01-18T10:45:28.444Z,96818.91
2018-01-18T10:47:56.124Z,96801.84
2018-01-18T10:50:23.761Z,96799.09
2018-01-18T10:52:51.466Z,96789.26
2018-01-18T10:55:19.144Z,96791.45
2018-01-18T10:57:46.950Z,96795.61
2018-01-18T11:00:14.673Z,96784.64
2018-01-18T11:02:42.310Z,96794.06
2018-01-18T11:05:09.946Z,96760.70
2018-01-18T11:07:37.546Z,96765.19
2018-01-18T11:10:05.150Z,96760.94
2018-01-18T11:12:32.755Z,96754.86
2018-01-18T11:15:00.510Z,96757.09
2018-01-18T11:17:28.120Z,96767.63
2018-01-18T11:19:55.755Z,96746.31
2018-01-18T11:22:23.440Z,96770.22
2018-01-18T11:24:51.050Z,96745.44
2018-01-18T11:27:18.658Z,96755.59
2018-01-18T11:29:46.265Z,96745.44
2018-01-18T11:32:13.895Z,96748.70
2018-01-18T11:34:41.523Z,96752.27
2018-01-18T11:37:09.189Z,96743.81
2018-01-18T11:39:36.805Z,96751.45
2018-01-18T11:42:04.477Z,96747.08
2018-01-18T11:44:32.220Z,96763.30
2018-01-18T11:46:59.993Z,96739.02
2018-01-18T11:49:28.400Z,96748.45
2018-01-18T11:51:56.003Z,96735.78
2018-01-18T11:54:23.645Z,96734.24
2018-01-18T11:56:51.306Z,96733.06
2018-01-18T11:59:18.920Z,96742.36
2018-01-18T12:01:46.764Z,96742.29
2018-01-18T12:04:14.385Z,96734.67
2018-01-18T12:06:42.034Z,96746.39
2018-01-18T12:09:09.724Z,96723.39
2018-01-18T12:11:37.381Z,96706.22
2018-01-18T12:14:05.070Z,96737.71
2018-01-18T12:16:32.805Z,96716.53
2018-01-18T12:19:00.565Z,96708.18
2018-01-18T12:21:28.270Z,96697.34
2018-01-18T12:23:55.995Z,96701.06
2018-01-18T12:26:23.586Z,96702.66
2018-01-18T12:28:51.225Z,96713.03
2018-01-18T12:31:19.058Z,96713.92
2018-01-18T12:33:46.835Z,96707.55
2018-01-18T12:36:14.521Z,96703.91
2018-01-18T12:38:42.155Z,96708.11
2018-01-18T12:41:09.780Z,96692.12
2018-01-18T12:43:37.410Z,96702.02
2018-01-18T12:46:05.148Z,96687.69
2018-01-18T12:48:32.920Z,96687.45
2018-01-18T12:51:00.541Z,96683.39
2018-01-18T12:53:28.179Z,96686.77
2018-01-18T12:55:55.895Z,96678.64
2018-01-18T12:58:23.682Z,96682.55
2018-01-18T13:00:51.440Z,96679.75
2018-01-18T13:03:19.286Z,96666.57
2018-01-18T13:05:46.934Z,96656.11
2018-01-18T13:08:14.560Z,96670.20
2018-01-18T13:10:42.250Z,96663.98
2018-01-18T13:13:09.882Z,96655.84
2018-01-18T13:15:37.595Z,96655.13
2018-01-18T13:18:05.261Z,96654.42
2018-01-18T13:20:32.920Z,96654.42
2018-01-18T13:23:00.544Z,96639.20
2018-01-18T13:25:28.400Z,96635.02
2018-01-18T13:27:56.210Z,96638.17
2018-01-18T13:30:23.828Z,96643.52
2018-01-18T13:32:51.576Z,96640.13
2018-01-18T13:35:19.309Z,96632.59
2018-01-18T13:37:47.025Z,96656.60
2018-01-18T13:40:14.986Z,96642.67
2018-01-18T13:42:42.703Z,96634.92
2018-01-18T13:45:10.440Z,96650.28
2018-01-18T13:47:38.048Z,96647.39
2018-01-18T13:50:05.785Z,96654.67
2018-01-18T13:52:33.436Z,96635.25
2018-01-18T13:55:01.091Z,96640.30
2018-01-18T13:57:28.784Z,96642.70
2018-01-18T13:59:56.539Z,96634.29
2018-01-18T14:02:24.160Z,96651.07
2018-01-18T14:04:52.055Z,96656.53
2018-01-18T14:07:19.856Z,96653.86
2018-01-18T14:09:47.530Z,96642.16
2018-01-18T14:12:15.305Z,96634.14
2018-01-18T14:14:42.937Z,96641.36
2018-01-18T14:17:10.575Z,96645.20
2018-01-18T14:19:38.213Z,96646.93
2018-01-18T14:22:05.826Z,96636.60
2018-01-18T14:24:33.714Z,96633.57
2018-01-18T14:27:01.326Z,96641.14
2018-01-18T14:29:28.986Z,96633.27
2018-01-18T14:31:56.602Z,96648.38
2018-01-18T14:34:24.215Z,96657.41
2018-01-18T14:36:51.858Z,96644.98
2018-01-18T14:39:19.490Z,96660.83
2018-01-18T14:41:47.209Z,96653.77
2018-01-18T14:44:14.820Z,96651.39
2018-01-18T14:46:42.496Z,96658.32
2018-01-18T14:49:10.132Z,96655.52
2018-01-18T14:51:37.757Z,96663.48
2018-01-18T14:54:05.643Z,96652.69
2018-01-18T14:56:33.376Z,96679.48
2018-01-18T14:59:01.085Z,96680.24
2018-01-18T15:01:28.711Z,96688.27
2018-01-18T15:03:56.441Z,96699.60
2018-01-18T15:06:24.126Z,96713.19
2018-01-18T15:08:51.744Z,96728.64
2018-01-18T15:11:19.599Z,96721.81
2018-01-18T15:13:47.320Z,96748.02
2018-01-18T15:16:14.970Z,96749.22
2018-01-18T15:18:42.748Z,96752.30
2018-01-18T15:21:10.542Z,96761.77
2018-01-18T15:23:38.176Z,96764.66
2018-01-18T15:26:05.831Z,96763.41
2018-01-18T15:28:33.468Z,96768.56
2018-01-18T15:31:01.104Z,96766.86
2018-01-18T15:33:28.785Z,96759.55
2018-01-18T15:35:56.405Z,96755.66
2018-01-18T15:38:24.184Z,96737.30
2018-01-18T15:40:51.821Z,96741.81
2018-01-18T15:43:19.616Z,96733.77
2018-01-18T15:45:47.232Z,96749.33
2018-01-18T15:48:14.876Z,96752.42
2018-01-18T15:50:42.490Z,96749.52
2018-01-18T15:53:10.210Z,96746.67
2018-01-18T15:55:37.797Z,96743.19
2018-01-18T15:58:05.419Z,96752.59
2018-01-18T16:00:33.085Z,96765.72
2018-01-18T16:03:00.694Z,96772.20
2018-01-18T16:05:28.456Z,96775.92
2018-01-18T16:07:56.096Z,96792.50
2018-01-18T16:10:23.834Z,96790.30
2018-01-18T16:12:51.488Z,96790.84
2018-01-18T16:15:19.177Z,96801.53
2018-01-18T16:17:46.931Z,96806.30
2018-01-18T16:20:14.576Z,96821.52
2018-01-18T16:22:42.203Z,96822.81
2018-01-18T16:25:09.831Z,96834.45
2018-01-18T16:27:37.590Z,96838.25
2018-01-18T16:30:05.331Z,96826.08
2018-01-18T16:32:32.954Z,96832.00
2018-01-18T16:35:00.751Z,96844.44
2018-01-18T16:37:28.399Z,96844.09
2018-01-18T16:39:56.181Z,96844.06
2018-01-18T16:42:24.041Z,96840.20
2018-01-18T16:44:51.667Z,96855.73
2018-01-18T16:47:19.280Z,96866.37
2018-01-18T16:49:46.908Z,96866.80
2018-01-18T16:52:14.589Z,96864.27
2018-01-18T16:54:42.224Z,96857.58
2018-01-18T16:57:09.873Z,96858.52
2018-01-18T16:59:37.506Z,96857.54
2018-01-18T17:02:05.217Z,96871.66
2018-01-18T17:04:32.855Z,96879.48
2018-01-18T17:07:00.514Z,96875.32
2018-01-18T17:09:28.161Z,96885.48
2018-01-18T17:11:55.888Z,96891.58
2018-01-18T17:14:23.514Z,96898.34
2018-01-18T17:16:51.230Z,96904.42
2018-01-18T17:19:18.881Z,96909.89
2018-01-18T17:21:46.645Z,96915.45
2018-01-18T17:24:14.307Z,96920.41
2018-01-18T17:26:41.930Z,96905.10
2018-01-18T17:29:09.882Z,96897.16
2018-01-18T17:31:37.745Z,96867.86
2018-01-18T17:34:05.471Z,96857.44
2018-01-18T17:36:33.126Z,96857.48
2018-01-18T17:39:00.730Z,96873.19
2018-01-18T17:41:28.376Z,96869.91
2018-01-18T17:43:56.024Z,96870.27
2018-01-18T17:46:23.823Z,96865.27
2018-01-18T17:48:51.922Z,96853.59
2018-01-18T17:51:19.570Z,96864.66
2018-01-18T17:53:47.210Z,96849.89
2018-01-18T17:56:14.836Z,96858.02
2018-01-18T17:58:42.476Z,96876.73
2018-01-18T18:01:10.177Z,96917.64
2018-01-18T18:03:38.046Z,96950.63
2018-01-18T18:06:06.787Z,96965.11
2018-01-18T18:08:39.092Z,96976.34
2018-01-18T18:11:57.707Z,96946.33
2018-01-18T18:14:36.464Z,96951.03
2018-01-18T18:17:04.789Z,96940.06
2018-01-18T18:22:54.006Z,96952.23
2018-01-18T18:25:21.830Z,96979.31
2018-01-18T18:27:49.565Z,96975.83
2018-01-18T18:30:17.371Z,96983.06
2018-01-18T18:32:45.056Z,96991.11
2018-01-18T18:35:12.712Z,96981.77
2018-01-18T18:37:40.327Z,96985.53
2018-01-18T18:40:08.107Z,97004.19
2018-01-18T18:42:35.825Z,97013.94
2018-01-18T18:45:04.314Z,97012.08
2018-01-18T18:47:32.020Z,97008.47
2018-01-18T18:49:59.648Z,97007.83
2018-01-18T18:52:27.385Z,97010.89
2018-01-18T18:54:55.335Z,97017.44
2018-01-18T18:57:23.127Z,97006.80
2018-01-18T18:59:51.018Z,96988.69
2018-01-18T19:02:18.692Z,96997.95
2018-01-18T19:04:46.505Z,96996.69
2018-01-18T19:07:14.136Z,97003.25
2018-01-18T19:09:41.986Z,96999.99
2018-01-18T19:12:09.680Z,96990.98
2018-01-18T19:14:37.540Z,96991.33
2018-01-18T19:17:05.467Z,96986.48
2018-01-18T19:19:33.195Z,96992.10
2018-01-18T19:22:01.209Z,97002.95
2018-01-18T19:24:28.869Z,97014.08
2018-01-18T19:26:56.719Z,97013.58
2018-01-18T19:29:24.542Z,97017.69
2018-01-18T19:31:52.406Z,97019.54
2018-01-18T19:34:20.213Z,97006.91
2018-01-18T19:36:47.931Z,97015.48
2018-01-18T19:39:15.764Z,97008.45
2018-01-18T19:41:43.667Z,97012.47
2018-01-18T19:44:11.644Z,97004.80
2018-01-18T19:46:39.372Z,96997.63
2018-01-18T19:49:07.272Z,96998.83
2018-01-18T19:51:35.341Z,97004.66
2018-01-18T19:54:03.412Z,97008.66
2018-01-18T19:56:31.378Z,97000.84
2018-01-18T19:58:59.240Z,96999.27
2018-01-18T20:01:27.115Z,97002.41
2018-01-18T20:03:55.247Z,96997.09
2018-01-18T20:06:23.065Z,97009.62
2018-01-18T20:08:50.810Z,97007.55
2018-01-18T20:11:18.685Z,97012.07
2018-01-18T20:13:46.665Z,97009.69
2018-01-18T20:16:14.727Z,97004.50
2018-01-18T20:18:42.908Z,97010.83
2018-01-18T20:21:10.741Z,97005.84
2018-01-18T20:23:38.655Z,96983.09
2018-01-18T20:26:06.809Z,96994.62
2018-01-18T20:28:35.081Z,96996.73
2018-01-18T20:31:03.717Z,96995.84
2018-01-18T20:33:31.741Z,97012.45
2018-01-18T20:35:59.703Z,97000.27
2018-01-18T20:38:27.387Z,97007.81
2018-01-18T20:40:55.083Z,97013.55
2018-01-18T20:43:22.892Z,97011.30
2018-01-18T20:45:50.534Z,97004.64
2018-01-18T20:48:18.406Z,97005.87
2018-01-18T20:50:46.108Z,97015.70
2018-01-18T20:53:13.754Z,97005.81
2018-01-18T20:55:41.518Z,96999.86
2018-01-18T20:58:09.212Z,97025.20
2018-01-18T21:00:36.872Z,97013.31
2018-01-18T21:03:04.656Z,97008.97
2018-01-18T21:05:32.308Z,97000.78
2018-01-18T21:08:00.128Z,96995.77
2018-01-18T21:10:27.812Z,96985.59
2018-01-18T21:12:55.637Z,96987.91
2018-01-18T21:15:23.375Z,96989.44
2018-01-18T21:17:51.182Z,96984.24
2018-01-18T21:20:18.936Z,96999.74
2018-01-18T21:22:46.570Z,96988.07
2018-01-18T21:25:14.321Z,96988.23
2018-01-18T21:27:42.077Z,96973.69
2018-01-18T21:30:09.688Z,96992.97
2018-01-18T21:32:37.319Z,97000.87
2018-01-18T21:35:05.341Z,96986.32
2018-01-18T21:37:33.144Z,96970.69
2018-01-18T21:40:00.842Z,96969.73
2018-01-18T21:42:28.473Z,96965.95
2018-01-18T21:44:56.157Z,96972.83
2018-01-18T21:47:23.776Z,96963.92
2018-01-18T21:49:51.601Z,96950.81
2018-01-18T21:52:19.349Z,96964.59
2018-01-18T21:54:47.073Z,96983.48
2018-01-18T21:57:14.705Z,96966.42
2018-01-18T21:59:42.554Z,96923.13
2018-01-18T22:02:10.188Z,96918.66
2018-01-18T22:04:37.841Z,96942.48
2018-01-18T22:07:05.521Z,96960.13
2018-01-18T22:09:33.444Z,96995.67
2018-01-18T22:12:01.065Z,97014.25
2018-01-18T22:14:28.705Z,96999.79
2018-01-18T22:16:56.382Z,97001.75
2018-01-18T22:19:24.000Z,97001.25
2018-01-18T22:21:51.806Z,97000.33
2018-01-18T22:24:19.672Z,96994.25
2018-01-18T22:26:47.394Z,96998.59
2018-01-18T22:29:15.109Z,96979.47
2018-01-18T22:31:42.770Z,96996.35
2018-01-18T22:34:10.445Z,96974.12
2018-01-18T22:36:38.226Z,96955.72
2018-01-18T22:39:05.941Z,96955.29
2018-01-18T22:41:33.635Z,96954.98
2018-01-18T22:44:01.270Z,96954.78
2018-01-18T22:46:29.101Z,96962.42
2018-01-18T22:48:56.787Z,96956.12
2018-01-18T22:51:24.441Z,96935.92
2018-01-18T22:53:52.240Z,96935.22
2018-01-18T22:56:19.922Z,96937.20
2018-01-18T22:58:50.857Z,96936.14
2018-01-18T23:01:18.768Z,96935.33
2018-01-18T23:03:46.721Z,96938.01
2018-01-18T23:06:14.337Z,96939.75
2018-01-18T23:08:42.980Z,96935.27
2018-01-18T23:11:11.616Z,96949.83
2018-01-18T23:13:39.521Z,96947.86
2018-01-18T23:16:07.200Z,96937.50
2018-01-18T23:18:37.766Z,96948.59
2018-01-18T23:21:05.388Z,96938.88
2018-01-18T23:23:33.071Z,96943.11
2018-01-18T23:26:00.691Z,96941.66
2018-01-18T23:28:28.316Z,96952.20
2018-01-18T23:30:57.995Z,96931.34
2018-01-18T23:33:25.750Z,96919.73
2018-01-18T23:35:53.351Z,96914.37
2018-01-18T23:38:21.056Z,96919.59
2018-01-18T23:40:50.396Z,96921.19
2018-01-18T23:43:19.411Z,96928.66
2018-01-18T23:45:48.030Z,96926.92
2018-01-18T23:48:15.774Z,96931.05
2018-01-18T23:50:43.396Z,96926.02
2018-01-18T23:53:11.144Z,96918.85
2018-01-18T23:55:38.757Z,96925.62
2018-01-18T23:58:06.429Z,96923.71
